Townsville Airport
YBTL : rendu visible

Aérodrome :











RETROUVEZ-NOUS SUR...

 
LOGIN :

S'inscrire | Disclaimer

   EN    FR    IT 

 









Légende :    VFR   VFR Marginal   IFR   IFR Intensif   IFR Très Intensif
Visi : 
Plafond : 
>= 8 km
>= 3000ft
5 à 8 km
1000 à 3000 ft
1500m à 5 km
500 à 1000 ft
800 à 1500m
200 à 500 ft
< 800m
< 200 ft
Symboles :   Orages  Brouillard  Fortes neiges  Fortes précipitations  Vent > 20 kt






- Altitude de l'aérodrome : 18 ft
- Code IATA : TSV


YBTL - Townsville

DERNIER METAR :
  • 020230Z 21007KT 9999 FEW040 27/15 Q1018 NOSIG

METARs EXPIRÉS :
  • 020200Z 22007KT 9999 FEW037 26/14 Q1018 NOSIG
  • 020130Z 21012KT 9999 FEW035 26/14 Q1019 NOSIG
  • 020100Z 21011KT 9999 FEW033 SCT057 25/15 Q1019 NOSIG
  • 020030Z 21010KT 9999 FEW030 SCT055 25/16 Q1019 NOSIG
  • 020000Z 21011KT 9999 FEW028 SCT053 24/17 Q1019
  • 012330Z 21009KT 9999 FEW030 SCT051 23/17 Q1019 NOSIG

TAF TAF YBTL
Valide du 02 à 00h jusqu'au 03 à 00h UTC


012252Z 0200/0300 20008KT 9999 FEW022 SCT040
FM020300 05012KT 9999 FEW040
FM020900 19005KT CAVOK
FIR YBBB / Océanie



MET'MAP, la Météo Aéronautique d'un coup d'oeil ! - Copyright ORBIFLY Décembre 2007 - Disclaimer

ORBIFLY MET'MAP TEAM :

Programmation & Développement : Alexandra Zaïnal
Sur une idée originale de : Baudouin d'Aumeries
Assistance à la programmation : Marc-Olivier Méhu
Soutien technique & logistique : Manuel Goepfert

Contact : metmap@orbifly.com




SOURCES & CREDITS :

   NOAA       Earth
Advisory